sensor_id;sensor_type;location;lat;lon;timestamp;P1;durP1;ratioP1;P2;durP2;ratioP2
51238;SDS011;38154;47.548;18.828;2023-07-30T00:02:17;2.53;;;1.52;;
51238;SDS011;38154;47.548;18.828;2023-07-30T00:07:10;1.65;;;1.05;;
51238;SDS011;38154;47.548;18.828;2023-07-30T00:12:03;1.08;;;0.82;;
51238;SDS011;38154;47.548;18.828;2023-07-30T00:14:30;1.75;;;1.35;;
51238;SDS011;38154;47.548;18.828;2023-07-30T00:16:56;2.28;;;1.10;;
51238;SDS011;38154;47.548;18.828;2023-07-30T00:19:22;4.43;;;1.25;;
51238;SDS011;38154;47.548;18.828;2023-07-30T00:21:48;1.75;;;0.98;;
51238;SDS011;38154;47.548;18.828;2023-07-30T00:24:13;1.85;;;1.00;;
51238;SDS011;38154;47.548;18.828;2023-07-30T00:26:39;2.08;;;1.23;;
51238;SDS011;38154;47.548;18.828;2023-07-30T00:29:05;1.40;;;1.00;;
51238;SDS011;38154;47.548;18.828;2023-07-30T00:31:31;1.45;;;1.12;;
51238;SDS011;38154;47.548;18.828;2023-07-30T00:33:57;1.58;;;0.85;;
51238;SDS011;38154;47.548;18.828;2023-07-30T00:36:23;2.17;;;0.88;;
51238;SDS011;38154;47.548;18.828;2023-07-30T00:38:49;0.93;;;0.88;;
51238;SDS011;38154;47.548;18.828;2023-07-30T00:41:15;1.02;;;0.88;;
51238;SDS011;38154;47.548;18.828;2023-07-30T00:43:40;1.73;;;1.00;;
51238;SDS011;38154;47.548;18.828;2023-07-30T00:46:06;1.60;;;1.00;;
51238;SDS011;38154;47.548;18.828;2023-07-30T00:48:32;5.97;;;1.00;;
51238;SDS011;38154;47.548;18.828;2023-07-30T00:50:58;1.00;;;0.55;;
51238;SDS011;38154;47.548;18.828;2023-07-30T00:53:28;0.65;;;0.60;;
51238;SDS011;38154;47.548;18.828;2023-07-30T00:55:54;1.27;;;1.08;;
51238;SDS011;38154;47.548;18.828;2023-07-30T01:00:47;1.60;;;0.70;;
51238;SDS011;38154;47.548;18.828;2023-07-30T01:03:13;1.35;;;1.00;;
51238;SDS011;38154;47.548;18.828;2023-07-30T01:05:39;2.75;;;1.30;;
51238;SDS011;38154;47.548;18.828;2023-07-30T01:08:05;1.10;;;0.82;;
51238;SDS011;38154;47.548;18.828;2023-07-30T01:10:31;1.10;;;1.00;;
51238;SDS011;38154;47.548;18.828;2023-07-30T01:13:01;1.00;;;0.90;;
51238;SDS011;38154;47.548;18.828;2023-07-30T01:15:29;1.23;;;0.88;;
51238;SDS011;38154;47.548;18.828;2023-07-30T01:17:56;1.67;;;1.00;;
51238;SDS011;38154;47.548;18.828;2023-07-30T01:20:22;1.48;;;0.95;;
51238;SDS011;38154;47.548;18.828;2023-07-30T01:22:47;0.70;;;0.57;;
51238;SDS011;38154;47.548;18.828;2023-07-30T01:25:14;1.55;;;1.05;;
51238;SDS011;38154;47.548;18.828;2023-07-30T01:27:43;3.40;;;1.05;;
51238;SDS011;38154;47.548;18.828;2023-07-30T01:30:25;1.83;;;0.80;;
51238;SDS011;38154;47.548;18.828;2023-07-30T01:32:53;2.03;;;0.93;;
51238;SDS011;38154;47.548;18.828;2023-07-30T01:35:21;0.88;;;0.82;;
51238;SDS011;38154;47.548;18.828;2023-07-30T01:37:49;5.30;;;1.30;;
51238;SDS011;38154;47.548;18.828;2023-07-30T01:40:17;1.70;;;1.10;;
51238;SDS011;38154;47.548;18.828;2023-07-30T01:42:43;1.12;;;1.02;;
51238;SDS011;38154;47.548;18.828;2023-07-30T01:45:09;1.73;;;0.80;;
51238;SDS011;38154;47.548;18.828;2023-07-30T01:47:34;2.10;;;1.12;;
51238;SDS011;38154;47.548;18.828;2023-07-30T01:50:00;1.27;;;0.77;;
51238;SDS011;38154;47.548;18.828;2023-07-30T01:52:26;1.15;;;1.08;;
51238;SDS011;38154;47.548;18.828;2023-07-30T01:54:52;1.87;;;0.95;;
51238;SDS011;38154;47.548;18.828;2023-07-30T01:57:18;1.75;;;1.20;;
51238;SDS011;38154;47.548;18.828;2023-07-30T01:59:44;0.57;;;0.57;;
51238;SDS011;38154;47.548;18.828;2023-07-30T02:02:10;1.05;;;0.77;;
51238;SDS011;38154;47.548;18.828;2023-07-30T02:04:35;1.10;;;0.80;;
51238;SDS011;38154;47.548;18.828;2023-07-30T02:07:01;1.20;;;1.05;;
51238;SDS011;38154;47.548;18.828;2023-07-30T02:09:27;0.93;;;0.80;;
51238;SDS011;38154;47.548;18.828;2023-07-30T02:11:53;2.05;;;1.17;;
51238;SDS011;38154;47.548;18.828;2023-07-30T02:14:19;1.10;;;1.00;;
51238;SDS011;38154;47.548;18.828;2023-07-30T02:16:45;1.50;;;0.75;;
51238;SDS011;38154;47.548;18.828;2023-07-30T02:19:11;1.45;;;0.80;;
51238;SDS011;38154;47.548;18.828;2023-07-30T02:21:37;0.88;;;0.82;;
51238;SDS011;38154;47.548;18.828;2023-07-30T02:24:08;10.38;;;1.08;;
51238;SDS011;38154;47.548;18.828;2023-07-30T02:26:36;1.37;;;1.00;;
51238;SDS011;38154;47.548;18.828;2023-07-30T02:29:05;2.87;;;1.05;;
51238;SDS011;38154;47.548;18.828;2023-07-30T02:31:31;1.00;;;0.80;;
51238;SDS011;38154;47.548;18.828;2023-07-30T02:33:57;1.83;;;1.23;;
51238;SDS011;38154;47.548;18.828;2023-07-30T02:36:23;2.12;;;1.35;;
51238;SDS011;38154;47.548;18.828;2023-07-30T02:38:49;1.33;;;1.00;;
51238;SDS011;38154;47.548;18.828;2023-07-30T02:41:16;1.02;;;0.88;;
51238;SDS011;38154;47.548;18.828;2023-07-30T02:43:42;0.75;;;0.75;;
51238;SDS011;38154;47.548;18.828;2023-07-30T02:46:08;2.55;;;1.30;;
51238;SDS011;38154;47.548;18.828;2023-07-30T02:48:34;1.70;;;1.15;;
51238;SDS011;38154;47.548;18.828;2023-07-30T02:50:59;1.25;;;0.88;;
51238;SDS011;38154;47.548;18.828;2023-07-30T02:53:25;1.50;;;0.90;;
51238;SDS011;38154;47.548;18.828;2023-07-30T02:55:51;0.82;;;0.82;;
51238;SDS011;38154;47.548;18.828;2023-07-30T02:58:17;1.73;;;1.05;;
51238;SDS011;38154;47.548;18.828;2023-07-30T03:00:43;1.77;;;0.88;;
51238;SDS011;38154;47.548;18.828;2023-07-30T03:03:09;3.75;;;1.00;;
51238;SDS011;38154;47.548;18.828;2023-07-30T03:05:35;1.70;;;0.93;;
51238;SDS011;38154;47.548;18.828;2023-07-30T03:08:01;1.75;;;1.10;;
51238;SDS011;38154;47.548;18.828;2023-07-30T03:10:27;2.35;;;1.30;;
51238;SDS011;38154;47.548;18.828;2023-07-30T03:12:53;0.90;;;0.73;;
51238;SDS011;38154;47.548;18.828;2023-07-30T03:15:18;2.58;;;1.42;;
51238;SDS011;38154;47.548;18.828;2023-07-30T03:17:44;2.00;;;1.27;;
51238;SDS011;38154;47.548;18.828;2023-07-30T03:20:10;1.33;;;0.80;;
51238;SDS011;38154;47.548;18.828;2023-07-30T03:22:36;1.85;;;1.20;;
51238;SDS011;38154;47.548;18.828;2023-07-30T03:25:02;1.12;;;0.93;;
51238;SDS011;38154;47.548;18.828;2023-07-30T03:27:28;1.55;;;0.85;;
51238;SDS011;38154;47.548;18.828;2023-07-30T03:29:54;1.33;;;1.20;;
51238;SDS011;38154;47.548;18.828;2023-07-30T03:32:20;1.48;;;0.90;;
51238;SDS011;38154;47.548;18.828;2023-07-30T03:34:46;0.80;;;0.70;;
51238;SDS011;38154;47.548;18.828;2023-07-30T03:37:12;0.88;;;0.80;;
51238;SDS011;38154;47.548;18.828;2023-07-30T03:39:37;1.45;;;0.93;;
51238;SDS011;38154;47.548;18.828;2023-07-30T03:42:03;2.03;;;1.10;;
51238;SDS011;38154;47.548;18.828;2023-07-30T03:44:29;1.62;;;1.20;;
51238;SDS011;38154;47.548;18.828;2023-07-30T03:46:55;1.48;;;0.80;;
51238;SDS011;38154;47.548;18.828;2023-07-30T03:49:21;0.80;;;0.70;;
51238;SDS011;38154;47.548;18.828;2023-07-30T03:51:47;0.65;;;0.62;;
51238;SDS011;38154;47.548;18.828;2023-07-30T03:54:13;2.03;;;0.95;;
51238;SDS011;38154;47.548;18.828;2023-07-30T03:56:39;0.90;;;0.68;;
51238;SDS011;38154;47.548;18.828;2023-07-30T03:59:05;1.02;;;0.75;;
51238;SDS011;38154;47.548;18.828;2023-07-30T04:01:31;1.55;;;1.05;;
51238;SDS011;38154;47.548;18.828;2023-07-30T04:03:57;1.45;;;0.90;;
51238;SDS011;38154;47.548;18.828;2023-07-30T04:06:23;7.80;;;1.00;;
51238;SDS011;38154;47.548;18.828;2023-07-30T04:08:48;2.97;;;1.25;;
51238;SDS011;38154;47.548;18.828;2023-07-30T04:11:14;3.17;;;1.12;;
51238;SDS011;38154;47.548;18.828;2023-07-30T04:13:41;2.30;;;0.88;;
51238;SDS011;38154;47.548;18.828;2023-07-30T04:16:07;2.03;;;1.20;;
51238;SDS011;38154;47.548;18.828;2023-07-30T04:18:33;1.20;;;1.02;;
51238;SDS011;38154;47.548;18.828;2023-07-30T04:20:59;1.37;;;0.80;;
51238;SDS011;38154;47.548;18.828;2023-07-30T04:23:25;1.35;;;1.00;;
51238;SDS011;38154;47.548;18.828;2023-07-30T04:25:51;1.73;;;0.93;;
51238;SDS011;38154;47.548;18.828;2023-07-30T04:28:17;1.05;;;0.90;;
51238;SDS011;38154;47.548;18.828;2023-07-30T04:30:43;1.12;;;0.80;;
51238;SDS011;38154;47.548;18.828;2023-07-30T04:33:12;1.45;;;1.30;;
51238;SDS011;38154;47.548;18.828;2023-07-30T04:35:40;1.73;;;1.00;;
51238;SDS011;38154;47.548;18.828;2023-07-30T04:40:32;1.58;;;1.08;;
51238;SDS011;38154;47.548;18.828;2023-07-30T04:42:57;5.45;;;0.90;;
51238;SDS011;38154;47.548;18.828;2023-07-30T04:45:23;2.58;;;0.90;;
51238;SDS011;38154;47.548;18.828;2023-07-30T04:47:49;3.08;;;1.12;;
51238;SDS011;38154;47.548;18.828;2023-07-30T04:50:15;2.85;;;1.33;;
51238;SDS011;38154;47.548;18.828;2023-07-30T04:52:41;2.20;;;1.40;;
51238;SDS011;38154;47.548;18.828;2023-07-30T04:55:07;1.20;;;0.80;;
51238;SDS011;38154;47.548;18.828;2023-07-30T04:57:33;1.20;;;1.10;;
51238;SDS011;38154;47.548;18.828;2023-07-30T04:59:59;1.87;;;0.75;;
51238;SDS011;38154;47.548;18.828;2023-07-30T05:02:25;1.48;;;1.10;;
51238;SDS011;38154;47.548;18.828;2023-07-30T05:04:50;1.55;;;0.90;;
51238;SDS011;38154;47.548;18.828;2023-07-30T05:07:16;1.58;;;1.05;;
51238;SDS011;38154;47.548;18.828;2023-07-30T05:09:42;1.73;;;1.17;;
51238;SDS011;38154;47.548;18.828;2023-07-30T05:12:08;2.72;;;1.20;;
51238;SDS011;38154;47.548;18.828;2023-07-30T05:14:34;2.97;;;0.98;;
51238;SDS011;38154;47.548;18.828;2023-07-30T05:17:00;1.80;;;1.02;;
51238;SDS011;38154;47.548;18.828;2023-07-30T05:19:26;1.23;;;1.08;;
51238;SDS011;38154;47.548;18.828;2023-07-30T05:21:52;3.40;;;1.37;;
51238;SDS011;38154;47.548;18.828;2023-07-30T05:24:17;1.10;;;0.85;;
51238;SDS011;38154;47.548;18.828;2023-07-30T05:26:43;1.23;;;0.90;;
51238;SDS011;38154;47.548;18.828;2023-07-30T05:29:09;1.80;;;1.20;;
51238;SDS011;38154;47.548;18.828;2023-07-30T05:31:35;1.98;;;1.20;;
51238;SDS011;38154;47.548;18.828;2023-07-30T05:34:01;1.10;;;1.00;;
51238;SDS011;38154;47.548;18.828;2023-07-30T05:36:27;1.77;;;1.10;;
51238;SDS011;38154;47.548;18.828;2023-07-30T05:38:53;1.73;;;0.82;;
51238;SDS011;38154;47.548;18.828;2023-07-30T05:41:19;2.70;;;1.20;;
51238;SDS011;38154;47.548;18.828;2023-07-30T05:43:46;1.73;;;1.00;;
51238;SDS011;38154;47.548;18.828;2023-07-30T05:46:13;1.10;;;0.80;;
51238;SDS011;38154;47.548;18.828;2023-07-30T05:48:39;1.58;;;1.00;;
51238;SDS011;38154;47.548;18.828;2023-07-30T05:51:04;1.10;;;1.00;;
51238;SDS011;38154;47.548;18.828;2023-07-30T05:53:31;2.22;;;1.20;;
51238;SDS011;38154;47.548;18.828;2023-07-30T05:55:56;1.23;;;1.10;;
51238;SDS011;38154;47.548;18.828;2023-07-30T05:58:22;1.25;;;1.00;;
51238;SDS011;38154;47.548;18.828;2023-07-30T06:00:48;1.37;;;0.80;;
51238;SDS011;38154;47.548;18.828;2023-07-30T06:03:14;1.98;;;1.05;;
51238;SDS011;38154;47.548;18.828;2023-07-30T06:05:40;1.27;;;0.85;;
51238;SDS011;38154;47.548;18.828;2023-07-30T06:08:07;2.05;;;0.88;;
51238;SDS011;38154;47.548;18.828;2023-07-30T06:10:34;1.10;;;1.00;;
51238;SDS011;38154;47.548;18.828;2023-07-30T06:13:01;2.83;;;1.30;;
51238;SDS011;38154;47.548;18.828;2023-07-30T06:15:28;1.67;;;1.10;;
51238;SDS011;38154;47.548;18.828;2023-07-30T06:17:54;1.70;;;1.00;;
51238;SDS011;38154;47.548;18.828;2023-07-30T06:20:20;1.90;;;1.45;;
51238;SDS011;38154;47.548;18.828;2023-07-30T06:22:45;1.58;;;0.90;;
51238;SDS011;38154;47.548;18.828;2023-07-30T06:25:11;0.90;;;0.80;;
51238;SDS011;38154;47.548;18.828;2023-07-30T06:27:37;1.73;;;0.95;;
51238;SDS011;38154;47.548;18.828;2023-07-30T06:30:03;2.55;;;1.10;;
51238;SDS011;38154;47.548;18.828;2023-07-30T06:32:30;1.65;;;0.95;;
51238;SDS011;38154;47.548;18.828;2023-07-30T06:34:56;2.45;;;1.25;;
51238;SDS011;38154;47.548;18.828;2023-07-30T06:37:21;1.15;;;0.85;;
51238;SDS011;38154;47.548;18.828;2023-07-30T06:39:47;1.33;;;1.17;;
51238;SDS011;38154;47.548;18.828;2023-07-30T06:42:13;1.30;;;1.00;;
51238;SDS011;38154;47.548;18.828;2023-07-30T06:44:39;1.85;;;0.90;;
51238;SDS011;38154;47.548;18.828;2023-07-30T06:47:05;3.05;;;1.15;;
51238;SDS011;38154;47.548;18.828;2023-07-30T06:49:31;0.98;;;0.90;;
51238;SDS011;38154;47.548;18.828;2023-07-30T06:51:59;1.50;;;1.20;;
51238;SDS011;38154;47.548;18.828;2023-07-30T06:54:25;1.85;;;0.90;;
51238;SDS011;38154;47.548;18.828;2023-07-30T06:56:51;1.87;;;1.27;;
51238;SDS011;38154;47.548;18.828;2023-07-30T06:59:17;2.12;;;1.20;;
51238;SDS011;38154;47.548;18.828;2023-07-30T07:01:43;2.40;;;1.23;;
51238;SDS011;38154;47.548;18.828;2023-07-30T07:04:09;4.05;;;1.05;;
51238;SDS011;38154;47.548;18.828;2023-07-30T07:06:34;1.83;;;1.30;;
51238;SDS011;38154;47.548;18.828;2023-07-30T07:09:00;2.15;;;1.17;;
51238;SDS011;38154;47.548;18.828;2023-07-30T07:11:26;1.60;;;1.10;;
51238;SDS011;38154;47.548;18.828;2023-07-30T07:13:52;2.40;;;1.40;;
51238;SDS011;38154;47.548;18.828;2023-07-30T07:16:18;3.60;;;1.62;;
51238;SDS011;38154;47.548;18.828;2023-07-30T07:18:44;2.10;;;1.52;;
51238;SDS011;38154;47.548;18.828;2023-07-30T07:21:10;1.92;;;1.35;;
51238;SDS011;38154;47.548;18.828;2023-07-30T07:26:02;2.47;;;1.40;;
51238;SDS011;38154;47.548;18.828;2023-07-30T07:28:28;2.12;;;1.48;;
51238;SDS011;38154;47.548;18.828;2023-07-30T07:30:54;1.73;;;1.30;;
51238;SDS011;38154;47.548;18.828;2023-07-30T07:33:21;1.83;;;1.40;;
51238;SDS011;38154;47.548;18.828;2023-07-30T07:38:13;3.60;;;1.48;;
51238;SDS011;38154;47.548;18.828;2023-07-30T07:40:39;2.00;;;1.35;;
51238;SDS011;38154;47.548;18.828;2023-07-30T07:43:06;5.10;;;1.55;;
51238;SDS011;38154;47.548;18.828;2023-07-30T07:45:32;1.12;;;1.02;;
51238;SDS011;38154;47.548;18.828;2023-07-30T07:47:58;3.97;;;1.95;;
51238;SDS011;38154;47.548;18.828;2023-07-30T07:50:24;2.20;;;1.40;;
51238;SDS011;38154;47.548;18.828;2023-07-30T07:52:50;1.80;;;1.30;;
51238;SDS011;38154;47.548;18.828;2023-07-30T07:55:16;2.25;;;1.40;;
51238;SDS011;38154;47.548;18.828;2023-07-30T07:57:42;2.33;;;1.67;;
51238;SDS011;38154;47.548;18.828;2023-07-30T08:00:08;1.92;;;1.30;;
51238;SDS011;38154;47.548;18.828;2023-07-30T08:05:00;2.72;;;1.48;;
51238;SDS011;38154;47.548;18.828;2023-07-30T08:07:26;2.97;;;1.75;;
51238;SDS011;38154;47.548;18.828;2023-07-30T08:09:52;3.12;;;1.35;;
51238;SDS011;38154;47.548;18.828;2023-07-30T08:12:19;1.67;;;1.33;;
51238;SDS011;38154;47.548;18.828;2023-07-30T08:14:45;2.72;;;1.55;;
51238;SDS011;38154;47.548;18.828;2023-07-30T08:17:11;2.83;;;1.90;;
51238;SDS011;38154;47.548;18.828;2023-07-30T08:19:36;3.37;;;1.73;;
51238;SDS011;38154;47.548;18.828;2023-07-30T08:22:02;1.80;;;1.60;;
51238;SDS011;38154;47.548;18.828;2023-07-30T08:24:28;2.62;;;1.92;;
51238;SDS011;38154;47.548;18.828;2023-07-30T08:26:54;1.40;;;1.20;;
51238;SDS011;38154;47.548;18.828;2023-07-30T08:29:20;3.62;;;2.35;;
51238;SDS011;38154;47.548;18.828;2023-07-30T08:31:46;5.97;;;1.67;;
51238;SDS011;38154;47.548;18.828;2023-07-30T08:34:12;5.00;;;2.05;;
51238;SDS011;38154;47.548;18.828;2023-07-30T08:36:39;4.12;;;2.10;;
51238;SDS011;38154;47.548;18.828;2023-07-30T08:39:05;2.45;;;1.65;;
51238;SDS011;38154;47.548;18.828;2023-07-30T08:41:31;2.85;;;1.60;;
51238;SDS011;38154;47.548;18.828;2023-07-30T08:43:57;3.05;;;1.80;;
51238;SDS011;38154;47.548;18.828;2023-07-30T08:46:23;2.62;;;1.62;;
51238;SDS011;38154;47.548;18.828;2023-07-30T08:48:49;1.27;;;1.15;;
51238;SDS011;38154;47.548;18.828;2023-07-30T08:51:15;2.70;;;1.90;;
51238;SDS011;38154;47.548;18.828;2023-07-30T08:53:42;3.78;;;1.52;;
51238;SDS011;38154;47.548;18.828;2023-07-30T08:56:08;3.97;;;1.92;;
51238;SDS011;38154;47.548;18.828;2023-07-30T08:58:34;3.30;;;1.55;;
51238;SDS011;38154;47.548;18.828;2023-07-30T09:01:03;4.45;;;1.95;;
51238;SDS011;38154;47.548;18.828;2023-07-30T09:03:33;4.10;;;1.77;;
51238;SDS011;38154;47.548;18.828;2023-07-30T09:06:03;2.85;;;1.60;;
51238;SDS011;38154;47.548;18.828;2023-07-30T09:08:29;2.35;;;1.67;;
51238;SDS011;38154;47.548;18.828;2023-07-30T09:10:55;2.35;;;1.58;;
51238;SDS011;38154;47.548;18.828;2023-07-30T09:13:21;5.05;;;1.77;;
51238;SDS011;38154;47.548;18.828;2023-07-30T09:15:49;1.80;;;1.12;;
51238;SDS011;38154;47.548;18.828;2023-07-30T09:18:18;1.37;;;0.95;;
51238;SDS011;38154;47.548;18.828;2023-07-30T09:20:45;2.45;;;1.62;;
51238;SDS011;38154;47.548;18.828;2023-07-30T09:23:11;1.40;;;1.30;;
51238;SDS011;38154;47.548;18.828;2023-07-30T09:25:37;3.40;;;1.37;;
51238;SDS011;38154;47.548;18.828;2023-07-30T09:28:05;1.77;;;1.42;;
51238;SDS011;38154;47.548;18.828;2023-07-30T09:30:31;3.87;;;1.60;;
51238;SDS011;38154;47.548;18.828;2023-07-30T09:32:58;2.62;;;1.35;;
51238;SDS011;38154;47.548;18.828;2023-07-30T09:35:25;3.10;;;1.90;;
51238;SDS011;38154;47.548;18.828;2023-07-30T09:38:02;3.08;;;1.80;;
51238;SDS011;38154;47.548;18.828;2023-07-30T09:40:32;2.83;;;1.80;;
51238;SDS011;38154;47.548;18.828;2023-07-30T09:43:00;3.00;;;1.92;;
51238;SDS011;38154;47.548;18.828;2023-07-30T09:45:28;3.08;;;1.77;;
51238;SDS011;38154;47.548;18.828;2023-07-30T09:47:54;1.95;;;1.35;;
51238;SDS011;38154;47.548;18.828;2023-07-30T09:50:23;2.22;;;1.80;;
51238;SDS011;38154;47.548;18.828;2023-07-30T09:52:49;2.92;;;2.12;;
51238;SDS011;38154;47.548;18.828;2023-07-30T09:55:16;4.95;;;2.40;;
51238;SDS011;38154;47.548;18.828;2023-07-30T09:57:44;3.15;;;2.15;;
51238;SDS011;38154;47.548;18.828;2023-07-30T10:00:10;3.20;;;2.08;;
51238;SDS011;38154;47.548;18.828;2023-07-30T10:02:40;5.10;;;2.55;;
51238;SDS011;38154;47.548;18.828;2023-07-30T10:05:10;3.75;;;2.17;;
51238;SDS011;38154;47.548;18.828;2023-07-30T10:10:36;3.25;;;2.17;;
51238;SDS011;38154;47.548;18.828;2023-07-30T10:13:03;3.12;;;2.28;;
51238;SDS011;38154;47.548;18.828;2023-07-30T10:15:35;3.30;;;2.20;;
51238;SDS011;38154;47.548;18.828;2023-07-30T10:18:02;4.32;;;2.78;;
51238;SDS011;38154;47.548;18.828;2023-07-30T10:20:28;3.80;;;2.15;;
51238;SDS011;38154;47.548;18.828;2023-07-30T10:22:56;4.22;;;2.45;;
51238;SDS011;38154;47.548;18.828;2023-07-30T10:25:30;4.40;;;2.30;;
51238;SDS011;38154;47.548;18.828;2023-07-30T10:28:08;3.62;;;1.90;;
51238;SDS011;38154;47.548;18.828;2023-07-30T10:30:34;4.07;;;2.50;;
51238;SDS011;38154;47.548;18.828;2023-07-30T10:33:04;3.87;;;2.30;;
51238;SDS011;38154;47.548;18.828;2023-07-30T10:40:40;6.97;;;2.72;;
51238;SDS011;38154;47.548;18.828;2023-07-30T10:43:16;3.00;;;2.12;;
51238;SDS011;38154;47.548;18.828;2023-07-30T10:45:49;3.90;;;2.17;;
51238;SDS011;38154;47.548;18.828;2023-07-30T10:48:16;3.47;;;2.28;;
51238;SDS011;38154;47.548;18.828;2023-07-30T10:50:43;2.37;;;1.70;;
51238;SDS011;38154;47.548;18.828;2023-07-30T10:53:14;3.92;;;2.50;;
51238;SDS011;38154;47.548;18.828;2023-07-30T10:55:44;3.45;;;2.28;;
51238;SDS011;38154;47.548;18.828;2023-07-30T10:58:10;4.57;;;2.75;;
51238;SDS011;38154;47.548;18.828;2023-07-30T11:00:36;3.47;;;2.20;;
51238;SDS011;38154;47.548;18.828;2023-07-30T11:03:03;2.62;;;1.92;;
51238;SDS011;38154;47.548;18.828;2023-07-30T11:05:29;3.03;;;2.28;;
51238;SDS011;38154;47.548;18.828;2023-07-30T11:10:21;4.07;;;2.40;;
51238;SDS011;38154;47.548;18.828;2023-07-30T11:12:48;3.37;;;2.00;;
51238;SDS011;38154;47.548;18.828;2023-07-30T11:15:17;2.90;;;1.65;;
51238;SDS011;38154;47.548;18.828;2023-07-30T11:17:43;1.87;;;1.50;;
51238;SDS011;38154;47.548;18.828;2023-07-30T11:20:29;3.33;;;1.90;;
51238;SDS011;38154;47.548;18.828;2023-07-30T11:22:55;3.00;;;1.77;;
51238;SDS011;38154;47.548;18.828;2023-07-30T11:25:21;3.10;;;1.60;;
51238;SDS011;38154;47.548;18.828;2023-07-30T11:27:47;4.65;;;1.65;;
51238;SDS011;38154;47.548;18.828;2023-07-30T11:30:14;3.22;;;1.70;;
51238;SDS011;38154;47.548;18.828;2023-07-30T11:32:43;2.30;;;1.60;;
51238;SDS011;38154;47.548;18.828;2023-07-30T11:35:13;2.40;;;1.98;;
51238;SDS011;38154;47.548;18.828;2023-07-30T11:37:42;2.53;;;1.75;;
51238;SDS011;38154;47.548;18.828;2023-07-30T11:40:09;2.70;;;1.67;;
51238;SDS011;38154;47.548;18.828;2023-07-30T11:42:36;2.35;;;1.65;;
51238;SDS011;38154;47.548;18.828;2023-07-30T11:45:18;2.65;;;1.75;;
51238;SDS011;38154;47.548;18.828;2023-07-30T11:47:47;1.83;;;1.55;;
51238;SDS011;38154;47.548;18.828;2023-07-30T11:50:13;3.42;;;2.03;;
51238;SDS011;38154;47.548;18.828;2023-07-30T11:55:21;2.62;;;1.73;;
51238;SDS011;38154;47.548;18.828;2023-07-30T11:57:48;3.60;;;1.70;;
51238;SDS011;38154;47.548;18.828;2023-07-30T12:00:14;2.05;;;1.40;;
51238;SDS011;38154;47.548;18.828;2023-07-30T12:02:41;1.30;;;1.12;;
51238;SDS011;38154;47.548;18.828;2023-07-30T12:05:09;4.12;;;1.90;;
51238;SDS011;38154;47.548;18.828;2023-07-30T12:07:39;1.67;;;1.30;;
51238;SDS011;38154;47.548;18.828;2023-07-30T12:10:10;3.15;;;1.80;;
51238;SDS011;38154;47.548;18.828;2023-07-30T12:12:43;1.77;;;1.23;;
51238;SDS011;38154;47.548;18.828;2023-07-30T12:15:10;1.95;;;1.12;;
51238;SDS011;38154;47.548;18.828;2023-07-30T12:17:38;4.18;;;1.70;;
51238;SDS011;38154;47.548;18.828;2023-07-30T12:20:04;4.00;;;2.30;;
51238;SDS011;38154;47.548;18.828;2023-07-30T12:22:35;2.47;;;1.62;;
51238;SDS011;38154;47.548;18.828;2023-07-30T12:25:01;2.87;;;1.48;;
51238;SDS011;38154;47.548;18.828;2023-07-30T12:27:28;2.47;;;1.55;;
51238;SDS011;38154;47.548;18.828;2023-07-30T12:29:55;1.75;;;1.45;;
51238;SDS011;38154;47.548;18.828;2023-07-30T12:32:21;2.05;;;1.20;;
51238;SDS011;38154;47.548;18.828;2023-07-30T12:34:46;1.92;;;1.70;;
51238;SDS011;38154;47.548;18.828;2023-07-30T12:37:12;2.22;;;1.42;;
51238;SDS011;38154;47.548;18.828;2023-07-30T12:39:38;1.85;;;1.42;;
51238;SDS011;38154;47.548;18.828;2023-07-30T12:42:04;3.15;;;1.50;;
51238;SDS011;38154;47.548;18.828;2023-07-30T12:44:30;2.47;;;1.52;;
51238;SDS011;38154;47.548;18.828;2023-07-30T12:46:56;2.22;;;1.55;;
51238;SDS011;38154;47.548;18.828;2023-07-30T12:49:22;2.42;;;1.92;;
51238;SDS011;38154;47.548;18.828;2023-07-30T12:51:48;1.98;;;1.52;;
51238;SDS011;38154;47.548;18.828;2023-07-30T12:54:13;2.53;;;1.52;;
51238;SDS011;38154;47.548;18.828;2023-07-30T12:56:39;1.17;;;1.08;;
51238;SDS011;38154;47.548;18.828;2023-07-30T12:59:05;4.37;;;1.55;;
51238;SDS011;38154;47.548;18.828;2023-07-30T13:01:31;2.80;;;1.50;;
51238;SDS011;38154;47.548;18.828;2023-07-30T13:03:57;5.07;;;1.40;;
51238;SDS011;38154;47.548;18.828;2023-07-30T13:06:23;1.10;;;0.80;;
51238;SDS011;38154;47.548;18.828;2023-07-30T13:08:49;2.05;;;1.15;;
51238;SDS011;38154;47.548;18.828;2023-07-30T13:11:14;1.73;;;1.25;;
51238;SDS011;38154;47.548;18.828;2023-07-30T13:13:40;2.65;;;1.25;;
51238;SDS011;38154;47.548;18.828;2023-07-30T13:16:06;1.02;;;0.93;;
51238;SDS011;38154;47.548;18.828;2023-07-30T13:18:32;1.87;;;0.80;;
51238;SDS011;38154;47.548;18.828;2023-07-30T13:20:58;1.23;;;0.80;;
51238;SDS011;38154;47.548;18.828;2023-07-30T13:23:24;1.83;;;1.42;;
51238;SDS011;38154;47.548;18.828;2023-07-30T13:25:54;1.05;;;0.93;;
51238;SDS011;38154;47.548;18.828;2023-07-30T13:28:20;1.70;;;1.08;;
51238;SDS011;38154;47.548;18.828;2023-07-30T13:30:46;1.60;;;1.17;;
51238;SDS011;38154;47.548;18.828;2023-07-30T13:33:12;2.67;;;1.48;;
51238;SDS011;38154;47.548;18.828;2023-07-30T13:35:37;2.33;;;1.25;;
51238;SDS011;38154;47.548;18.828;2023-07-30T13:38:04;1.67;;;1.30;;
51238;SDS011;38154;47.548;18.828;2023-07-30T13:40:29;3.20;;;1.27;;
51238;SDS011;38154;47.548;18.828;2023-07-30T13:42:55;2.12;;;1.73;;
51238;SDS011;38154;47.548;18.828;2023-07-30T13:45:21;1.75;;;1.35;;
51238;SDS011;38154;47.548;18.828;2023-07-30T13:47:47;1.48;;;1.23;;
51238;SDS011;38154;47.548;18.828;2023-07-30T13:50:13;1.55;;;1.23;;
51238;SDS011;38154;47.548;18.828;2023-07-30T13:52:39;1.45;;;1.17;;
51238;SDS011;38154;47.548;18.828;2023-07-30T13:55:05;2.20;;;1.20;;
51238;SDS011;38154;47.548;18.828;2023-07-30T13:59:56;1.00;;;0.95;;
51238;SDS011;38154;47.548;18.828;2023-07-30T14:02:22;1.58;;;1.10;;
51238;SDS011;38154;47.548;18.828;2023-07-30T14:04:48;1.35;;;1.10;;
51238;SDS011;38154;47.548;18.828;2023-07-30T14:07:14;1.15;;;1.00;;
51238;SDS011;38154;47.548;18.828;2023-07-30T14:09:40;1.67;;;1.15;;
51238;SDS011;38154;47.548;18.828;2023-07-30T14:12:06;1.67;;;1.00;;
51238;SDS011;38154;47.548;18.828;2023-07-30T14:16:58;0.73;;;0.70;;
51238;SDS011;38154;47.548;18.828;2023-07-30T14:19:24;1.67;;;1.00;;
51238;SDS011;38154;47.548;18.828;2023-07-30T14:21:49;1.45;;;1.00;;
51238;SDS011;38154;47.548;18.828;2023-07-30T14:24:15;0.95;;;0.90;;
51238;SDS011;38154;47.548;18.828;2023-07-30T14:26:41;2.50;;;0.80;;
51238;SDS011;38154;47.548;18.828;2023-07-30T14:29:07;1.52;;;1.17;;
51238;SDS011;38154;47.548;18.828;2023-07-30T14:31:33;1.20;;;1.10;;
51238;SDS011;38154;47.548;18.828;2023-07-30T14:33:59;1.67;;;1.30;;
51238;SDS011;38154;47.548;18.828;2023-07-30T14:36:25;1.95;;;1.23;;
51238;SDS011;38154;47.548;18.828;2023-07-30T14:38:51;1.50;;;0.90;;
51238;SDS011;38154;47.548;18.828;2023-07-30T14:41:16;2.12;;;1.17;;
51238;SDS011;38154;47.548;18.828;2023-07-30T14:43:42;1.20;;;0.88;;
51238;SDS011;38154;47.548;18.828;2023-07-30T14:46:08;1.85;;;1.12;;
51238;SDS011;38154;47.548;18.828;2023-07-30T14:48:39;0.85;;;0.80;;
51238;SDS011;38154;47.548;18.828;2023-07-30T14:51:06;1.17;;;0.88;;
51238;SDS011;38154;47.548;18.828;2023-07-30T14:53:33;1.45;;;1.25;;
51238;SDS011;38154;47.548;18.828;2023-07-30T14:55:58;1.48;;;1.27;;
51238;SDS011;38154;47.548;18.828;2023-07-30T14:58:25;1.10;;;0.85;;
51238;SDS011;38154;47.548;18.828;2023-07-30T15:00:51;1.90;;;1.25;;
51238;SDS011;38154;47.548;18.828;2023-07-30T15:03:16;0.90;;;0.85;;
51238;SDS011;38154;47.548;18.828;2023-07-30T15:05:42;1.42;;;1.00;;